sensor_id;sensor_type;location;lat;lon;timestamp;P1;durP1;ratioP1;P2;durP2;ratioP2
6926;SDS011;3503;50.07605000;8.86719200;2024-01-06T00:10:41;7.17;;;1.87;;
6926;SDS011;3503;50.07605000;8.86719200;2024-01-06T00:25:44;22.33;;;2.40;;
6926;SDS011;3503;50.07605000;8.86719200;2024-01-06T00:40:47;5.20;;;1.83;;
6926;SDS011;3503;50.07605000;8.86719200;2024-01-06T00:55:50;11.87;;;2.57;;
6926;SDS011;3503;50.07605000;8.86719200;2024-01-06T01:10:53;8.93;;;2.60;;
6926;SDS011;3503;50.07605000;8.86719200;2024-01-06T01:25:55;6.50;;;3.20;;
6926;SDS011;3503;50.07605000;8.86719200;2024-01-06T01:40:59;9.60;;;4.43;;
6926;SDS011;3503;50.07605000;8.86719200;2024-01-06T01:56:01;18.07;;;5.90;;
6926;SDS011;3503;50.07605000;8.86719200;2024-01-06T02:11:05;9.30;;;5.33;;
6926;SDS011;3503;50.07605000;8.86719200;2024-01-06T02:26:10;10.53;;;4.10;;
6926;SDS011;3503;50.07605000;8.86719200;2024-01-06T02:41:14;4.77;;;2.80;;
6926;SDS011;3503;50.07605000;8.86719200;2024-01-06T02:56:17;9.93;;;2.70;;
6926;SDS011;3503;50.07605000;8.86719200;2024-01-06T03:11:20;12.00;;;1.80;;
6926;SDS011;3503;50.07605000;8.86719200;2024-01-06T03:26:23;9.17;;;1.97;;
6926;SDS011;3503;50.07605000;8.86719200;2024-01-06T03:41:25;6.80;;;2.00;;
6926;SDS011;3503;50.07605000;8.86719200;2024-01-06T03:56:29;5.07;;;1.90;;
6926;SDS011;3503;50.07605000;8.86719200;2024-01-06T04:11:32;10.27;;;2.00;;
6926;SDS011;3503;50.07605000;8.86719200;2024-01-06T04:26:35;9.07;;;2.03;;
6926;SDS011;3503;50.07605000;8.86719200;2024-01-06T04:41:37;4.37;;;2.07;;
6926;SDS011;3503;50.07605000;8.86719200;2024-01-06T04:56:40;8.53;;;1.73;;
6926;SDS011;3503;50.07605000;8.86719200;2024-01-06T05:11:44;12.80;;;2.90;;
6926;SDS011;3503;50.07605000;8.86719200;2024-01-06T05:26:48;9.67;;;3.43;;
6926;SDS011;3503;50.07605000;8.86719200;2024-01-06T05:41:51;6.30;;;2.63;;
6926;SDS011;3503;50.07605000;8.86719200;2024-01-06T05:56:55;12.13;;;2.30;;
6926;SDS011;3503;50.07605000;8.86719200;2024-01-06T06:11:58;10.20;;;2.47;;
6926;SDS011;3503;50.07605000;8.86719200;2024-01-06T06:27:00;9.43;;;2.50;;
6926;SDS011;3503;50.07605000;8.86719200;2024-01-06T06:42:04;9.63;;;3.13;;
6926;SDS011;3503;50.07605000;8.86719200;2024-01-06T06:57:06;4.83;;;3.33;;
6926;SDS011;3503;50.07605000;8.86719200;2024-01-06T07:12:09;6.70;;;2.60;;
6926;SDS011;3503;50.07605000;8.86719200;2024-01-06T07:27:12;6.90;;;2.40;;
6926;SDS011;3503;50.07605000;8.86719200;2024-01-06T07:42:16;11.03;;;4.30;;
6926;SDS011;3503;50.07605000;8.86719200;2024-01-06T07:57:19;16.30;;;3.77;;
6926;SDS011;3503;50.07605000;8.86719200;2024-01-06T08:12:22;5.23;;;2.63;;
6926;SDS011;3503;50.07605000;8.86719200;2024-01-06T08:27:25;20.43;;;2.97;;
6926;SDS011;3503;50.07605000;8.86719200;2024-01-06T08:42:28;6.93;;;3.30;;
6926;SDS011;3503;50.07605000;8.86719200;2024-01-06T08:57:30;8.57;;;3.53;;
6926;SDS011;3503;50.07605000;8.86719200;2024-01-06T09:12:34;11.43;;;3.70;;
6926;SDS011;3503;50.07605000;8.86719200;2024-01-06T09:27:36;8.80;;;3.60;;
6926;SDS011;3503;50.07605000;8.86719200;2024-01-06T09:42:39;7.10;;;3.47;;
6926;SDS011;3503;50.07605000;8.86719200;2024-01-06T09:57:42;13.53;;;4.40;;
6926;SDS011;3503;50.07605000;8.86719200;2024-01-06T10:12:47;10.57;;;3.47;;
6926;SDS011;3503;50.07605000;8.86719200;2024-01-06T10:27:52;8.70;;;4.20;;
6926;SDS011;3503;50.07605000;8.86719200;2024-01-06T10:42:55;7.93;;;4.07;;
6926;SDS011;3503;50.07605000;8.86719200;2024-01-06T10:57:59;7.07;;;3.30;;
6926;SDS011;3503;50.07605000;8.86719200;2024-01-06T11:13:12;8.43;;;3.90;;
6926;SDS011;3503;50.07605000;8.86719200;2024-01-06T11:28:17;6.63;;;3.87;;
6926;SDS011;3503;50.07605000;8.86719200;2024-01-06T11:43:20;16.00;;;4.13;;
6926;SDS011;3503;50.07605000;8.86719200;2024-01-06T11:58:29;13.27;;;4.70;;
6926;SDS011;3503;50.07605000;8.86719200;2024-01-06T12:13:32;5.70;;;3.20;;
6926;SDS011;3503;50.07605000;8.86719200;2024-01-06T12:28:36;10.03;;;4.73;;
6926;SDS011;3503;50.07605000;8.86719200;2024-01-06T12:43:39;12.03;;;4.67;;
6926;SDS011;3503;50.07605000;8.86719200;2024-01-06T12:58:43;7.17;;;4.43;;
6926;SDS011;3503;50.07605000;8.86719200;2024-01-06T13:13:46;7.23;;;4.33;;
6926;SDS011;3503;50.07605000;8.86719200;2024-01-06T13:28:49;8.23;;;4.00;;
6926;SDS011;3503;50.07605000;8.86719200;2024-01-06T13:43:52;6.30;;;3.97;;
6926;SDS011;3503;50.07605000;8.86719200;2024-01-06T13:58:55;8.47;;;3.60;;
6926;SDS011;3503;50.07605000;8.86719200;2024-01-06T14:13:59;15.53;;;4.93;;
6926;SDS011;3503;50.07605000;8.86719200;2024-01-06T14:29:02;5.97;;;4.20;;
6926;SDS011;3503;50.07605000;8.86719200;2024-01-06T14:44:05;9.17;;;4.03;;
6926;SDS011;3503;50.07605000;8.86719200;2024-01-06T14:59:08;5.30;;;4.00;;
6926;SDS011;3503;50.07605000;8.86719200;2024-01-06T15:14:11;7.10;;;4.03;;
6926;SDS011;3503;50.07605000;8.86719200;2024-01-06T15:29:14;7.00;;;4.90;;
6926;SDS011;3503;50.07605000;8.86719200;2024-01-06T15:44:16;23.07;;;7.17;;
6926;SDS011;3503;50.07605000;8.86719200;2024-01-06T15:59:19;9.90;;;6.60;;
6926;SDS011;3503;50.07605000;8.86719200;2024-01-06T16:14:22;11.50;;;6.97;;
6926;SDS011;3503;50.07605000;8.86719200;2024-01-06T16:29:26;9.63;;;6.27;;
6926;SDS011;3503;50.07605000;8.86719200;2024-01-06T16:44:29;13.33;;;6.53;;
6926;SDS011;3503;50.07605000;8.86719200;2024-01-06T16:59:32;13.20;;;7.20;;
6926;SDS011;3503;50.07605000;8.86719200;2024-01-06T17:14:35;10.23;;;5.70;;
6926;SDS011;3503;50.07605000;8.86719200;2024-01-06T17:29:38;15.70;;;7.30;;
6926;SDS011;3503;50.07605000;8.86719200;2024-01-06T17:44:41;15.37;;;9.23;;
6926;SDS011;3503;50.07605000;8.86719200;2024-01-06T17:59:46;13.17;;;7.30;;
6926;SDS011;3503;50.07605000;8.86719200;2024-01-06T18:14:49;14.07;;;7.57;;
6926;SDS011;3503;50.07605000;8.86719200;2024-01-06T18:29:52;10.93;;;6.93;;
6926;SDS011;3503;50.07605000;8.86719200;2024-01-06T18:44:55;12.40;;;7.87;;
6926;SDS011;3503;50.07605000;8.86719200;2024-01-06T18:59:57;12.87;;;8.60;;
6926;SDS011;3503;50.07605000;8.86719200;2024-01-06T19:15:01;12.93;;;8.50;;
6926;SDS011;3503;50.07605000;8.86719200;2024-01-06T19:30:04;20.33;;;10.73;;
6926;SDS011;3503;50.07605000;8.86719200;2024-01-06T19:45:08;17.37;;;10.80;;
6926;SDS011;3503;50.07605000;8.86719200;2024-01-06T20:00:13;12.93;;;8.03;;
6926;SDS011;3503;50.07605000;8.86719200;2024-01-06T20:15:17;16.10;;;9.03;;
6926;SDS011;3503;50.07605000;8.86719200;2024-01-06T20:30:20;12.57;;;7.30;;
6926;SDS011;3503;50.07605000;8.86719200;2024-01-06T20:45:24;9.77;;;6.40;;
6926;SDS011;3503;50.07605000;8.86719200;2024-01-06T21:00:28;10.53;;;7.20;;
6926;SDS011;3503;50.07605000;8.86719200;2024-01-06T21:15:34;11.20;;;7.00;;
6926;SDS011;3503;50.07605000;8.86719200;2024-01-06T21:30:37;9.33;;;5.80;;
6926;SDS011;3503;50.07605000;8.86719200;2024-01-06T21:45:40;5.53;;;3.40;;
6926;SDS011;3503;50.07605000;8.86719200;2024-01-06T22:00:42;4.33;;;3.00;;
6926;SDS011;3503;50.07605000;8.86719200;2024-01-06T22:15:45;4.90;;;3.10;;
6926;SDS011;3503;50.07605000;8.86719200;2024-01-06T22:30:48;5.77;;;3.70;;
6926;SDS011;3503;50.07605000;8.86719200;2024-01-06T22:45:51;6.40;;;3.47;;
6926;SDS011;3503;50.07605000;8.86719200;2024-01-06T23:00:54;6.27;;;3.13;;
6926;SDS011;3503;50.07605000;8.86719200;2024-01-06T23:15:57;8.60;;;4.53;;
6926;SDS011;3503;50.07605000;8.86719200;2024-01-06T23:31:00;7.33;;;4.60;;
6926;SDS011;3503;50.07605000;8.86719200;2024-01-06T23:46:03;8.67;;;5.30;;
